sensor_id;sensor_type;location;lat;lon;timestamp;P1;durP1;ratioP1;P2;durP2;ratioP2
9288;SDS011;4683;50.864;12.086;2023-01-08T00:01:21;7.50;;;6.80;;
9288;SDS011;4683;50.864;12.086;2023-01-08T00:03:50;7.03;;;6.43;;
9288;SDS011;4683;50.864;12.086;2023-01-08T00:06:18;7.20;;;6.60;;
9288;SDS011;4683;50.864;12.086;2023-01-08T00:08:47;7.67;;;6.97;;
9288;SDS011;4683;50.864;12.086;2023-01-08T00:11:18;9.90;;;8.20;;
9288;SDS011;4683;50.864;12.086;2023-01-08T00:13:47;7.60;;;6.93;;
9288;SDS011;4683;50.864;12.086;2023-01-08T00:16:16;7.63;;;6.93;;
9288;SDS011;4683;50.864;12.086;2023-01-08T00:18:46;7.83;;;7.13;;
9288;SDS011;4683;50.864;12.086;2023-01-08T00:21:14;7.67;;;7.00;;
9288;SDS011;4683;50.864;12.086;2023-01-08T00:23:43;7.57;;;6.93;;
9288;SDS011;4683;50.864;12.086;2023-01-08T00:26:11;7.10;;;6.50;;
9288;SDS011;4683;50.864;12.086;2023-01-08T00:28:44;7.93;;;7.17;;
9288;SDS011;4683;50.864;12.086;2023-01-08T00:31:13;8.23;;;6.97;;
9288;SDS011;4683;50.864;12.086;2023-01-08T00:33:41;7.37;;;6.77;;
9288;SDS011;4683;50.864;12.086;2023-01-08T00:36:10;7.80;;;7.10;;
9288;SDS011;4683;50.864;12.086;2023-01-08T00:38:40;9.20;;;8.30;;
9288;SDS011;4683;50.864;12.086;2023-01-08T00:41:10;7.40;;;6.70;;
9288;SDS011;4683;50.864;12.086;2023-01-08T00:43:40;6.93;;;6.33;;
9288;SDS011;4683;50.864;12.086;2023-01-08T00:46:10;7.20;;;6.60;;
9288;SDS011;4683;50.864;12.086;2023-01-08T00:48:39;6.73;;;6.13;;
9288;SDS011;4683;50.864;12.086;2023-01-08T00:51:08;6.80;;;6.20;;
9288;SDS011;4683;50.864;12.086;2023-01-08T00:53:36;6.77;;;6.17;;
9288;SDS011;4683;50.864;12.086;2023-01-08T00:56:06;6.50;;;5.90;;
9288;SDS011;4683;50.864;12.086;2023-01-08T00:58:36;6.43;;;5.90;;
9288;SDS011;4683;50.864;12.086;2023-01-08T01:01:08;6.27;;;5.70;;
9288;SDS011;4683;50.864;12.086;2023-01-08T01:03:39;5.77;;;5.27;;
9288;SDS011;4683;50.864;12.086;2023-01-08T01:06:09;6.47;;;5.20;;
9288;SDS011;4683;50.864;12.086;2023-01-08T01:08:40;5.70;;;5.20;;
9288;SDS011;4683;50.864;12.086;2023-01-08T01:11:10;5.43;;;5.03;;
9288;SDS011;4683;50.864;12.086;2023-01-08T01:13:43;5.73;;;5.23;;
9288;SDS011;4683;50.864;12.086;2023-01-08T01:16:13;5.90;;;5.40;;
9288;SDS011;4683;50.864;12.086;2023-01-08T01:18:42;6.27;;;5.77;;
9288;SDS011;4683;50.864;12.086;2023-01-08T01:21:19;6.17;;;5.57;;
9288;SDS011;4683;50.864;12.086;2023-01-08T01:23:52;5.63;;;5.13;;
9288;SDS011;4683;50.864;12.086;2023-01-08T01:26:21;6.00;;;5.50;;
9288;SDS011;4683;50.864;12.086;2023-01-08T01:28:51;5.70;;;5.20;;
9288;SDS011;4683;50.864;12.086;2023-01-08T01:31:23;5.93;;;5.43;;
9288;SDS011;4683;50.864;12.086;2023-01-08T01:33:55;6.20;;;5.67;;
9288;SDS011;4683;50.864;12.086;2023-01-08T01:36:25;7.03;;;6.43;;
9288;SDS011;4683;50.864;12.086;2023-01-08T01:38:54;9.23;;;8.13;;
9288;SDS011;4683;50.864;12.086;2023-01-08T01:41:25;6.37;;;5.77;;
9288;SDS011;4683;50.864;12.086;2023-01-08T01:43:56;5.67;;;5.07;;
9288;SDS011;4683;50.864;12.086;2023-01-08T01:46:30;6.03;;;5.30;;
9288;SDS011;4683;50.864;12.086;2023-01-08T01:49:05;5.37;;;4.83;;
9288;SDS011;4683;50.864;12.086;2023-01-08T01:51:38;5.47;;;4.97;;
9288;SDS011;4683;50.864;12.086;2023-01-08T01:54:11;5.83;;;5.27;;
9288;SDS011;4683;50.864;12.086;2023-01-08T01:56:41;5.53;;;5.00;;
9288;SDS011;4683;50.864;12.086;2023-01-08T01:59:11;5.30;;;4.80;;
9288;SDS011;4683;50.864;12.086;2023-01-08T02:01:42;5.53;;;5.03;;
9288;SDS011;4683;50.864;12.086;2023-01-08T02:04:14;5.47;;;4.97;;
9288;SDS011;4683;50.864;12.086;2023-01-08T02:06:44;5.93;;;5.37;;
9288;SDS011;4683;50.864;12.086;2023-01-08T02:09:21;5.00;;;4.60;;
9288;SDS011;4683;50.864;12.086;2023-01-08T02:12:02;5.27;;;4.77;;
9288;SDS011;4683;50.864;12.086;2023-01-08T02:14:48;5.17;;;4.67;;
9288;SDS011;4683;50.864;12.086;2023-01-08T02:17:35;5.40;;;4.90;;
9288;SDS011;4683;50.864;12.086;2023-01-08T02:20:11;5.90;;;5.40;;
9288;SDS011;4683;50.864;12.086;2023-01-08T02:22:50;5.10;;;4.70;;
9288;SDS011;4683;50.864;12.086;2023-01-08T02:28:46;5.43;;;4.93;;
9288;SDS011;4683;50.864;12.086;2023-01-08T02:31:22;6.10;;;5.60;;
9288;SDS011;4683;50.864;12.086;2023-01-08T02:33:53;5.47;;;5.00;;
9288;SDS011;4683;50.864;12.086;2023-01-08T02:36:29;5.30;;;4.80;;
9288;SDS011;4683;50.864;12.086;2023-01-08T02:39:13;5.30;;;4.80;;
9288;SDS011;4683;50.864;12.086;2023-01-08T02:42:00;6.13;;;4.90;;
9288;SDS011;4683;50.864;12.086;2023-01-08T02:44:42;5.67;;;5.13;;
9288;SDS011;4683;50.864;12.086;2023-01-08T02:47:24;5.30;;;4.80;;
9288;SDS011;4683;50.864;12.086;2023-01-08T02:49:59;5.23;;;4.70;;
9288;SDS011;4683;50.864;12.086;2023-01-08T02:52:41;4.77;;;4.30;;
9288;SDS011;4683;50.864;12.086;2023-01-08T02:55:18;4.53;;;4.13;;
9288;SDS011;4683;50.864;12.086;2023-01-08T02:57:52;5.07;;;4.60;;
9288;SDS011;4683;50.864;12.086;2023-01-08T03:00:21;5.10;;;4.63;;
9288;SDS011;4683;50.864;12.086;2023-01-08T03:02:51;5.30;;;4.80;;
9288;SDS011;4683;50.864;12.086;2023-01-08T03:05:34;5.10;;;4.60;;
9288;SDS011;4683;50.864;12.086;2023-01-08T03:08:04;4.90;;;4.50;;
9288;SDS011;4683;50.864;12.086;2023-01-08T03:10:33;5.70;;;5.07;;
9288;SDS011;4683;50.864;12.086;2023-01-08T03:13:06;5.00;;;4.47;;
9288;SDS011;4683;50.864;12.086;2023-01-08T03:15:43;5.97;;;5.37;;
9288;SDS011;4683;50.864;12.086;2023-01-08T03:18:17;9.47;;;5.77;;
9288;SDS011;4683;50.864;12.086;2023-01-08T03:20:52;4.90;;;4.43;;
9288;SDS011;4683;50.864;12.086;2023-01-08T03:23:21;5.30;;;4.77;;
9288;SDS011;4683;50.864;12.086;2023-01-08T03:25:53;5.67;;;4.77;;
9288;SDS011;4683;50.864;12.086;2023-01-08T03:28:23;7.00;;;5.50;;
9288;SDS011;4683;50.864;12.086;2023-01-08T03:30:58;5.53;;;5.00;;
9288;SDS011;4683;50.864;12.086;2023-01-08T03:33:28;6.10;;;5.13;;
9288;SDS011;4683;50.864;12.086;2023-01-08T03:35:58;5.73;;;5.17;;
9288;SDS011;4683;50.864;12.086;2023-01-08T03:38:31;5.17;;;4.70;;
9288;SDS011;4683;50.864;12.086;2023-01-08T03:41:03;4.97;;;4.57;;
9288;SDS011;4683;50.864;12.086;2023-01-08T03:43:38;5.43;;;4.73;;
9288;SDS011;4683;50.864;12.086;2023-01-08T03:46:08;5.13;;;4.63;;
9288;SDS011;4683;50.864;12.086;2023-01-08T03:48:40;5.33;;;4.87;;
9288;SDS011;4683;50.864;12.086;2023-01-08T03:51:10;5.27;;;4.70;;
9288;SDS011;4683;50.864;12.086;2023-01-08T03:53:38;5.93;;;5.43;;
9288;SDS011;4683;50.864;12.086;2023-01-08T03:56:07;6.50;;;5.90;;
9288;SDS011;4683;50.864;12.086;2023-01-08T03:58:35;7.97;;;6.37;;
9288;SDS011;4683;50.864;12.086;2023-01-08T04:01:05;6.30;;;5.70;;
9288;SDS011;4683;50.864;12.086;2023-01-08T04:03:34;6.47;;;5.80;;
9288;SDS011;4683;50.864;12.086;2023-01-08T04:06:02;6.93;;;6.00;;
9288;SDS011;4683;50.864;12.086;2023-01-08T04:08:31;7.00;;;5.63;;
9288;SDS011;4683;50.864;12.086;2023-01-08T04:10:59;6.33;;;5.73;;
9288;SDS011;4683;50.864;12.086;2023-01-08T04:13:28;7.13;;;6.07;;
9288;SDS011;4683;50.864;12.086;2023-01-08T04:15:58;5.90;;;5.30;;
9288;SDS011;4683;50.864;12.086;2023-01-08T04:18:26;7.03;;;5.40;;
9288;SDS011;4683;50.864;12.086;2023-01-08T04:20:55;6.30;;;5.70;;
9288;SDS011;4683;50.864;12.086;2023-01-08T04:23:23;6.00;;;5.47;;
9288;SDS011;4683;50.864;12.086;2023-01-08T04:25:52;7.47;;;6.10;;
9288;SDS011;4683;50.864;12.086;2023-01-08T04:28:21;7.00;;;5.80;;
9288;SDS011;4683;50.864;12.086;2023-01-08T04:30:50;6.77;;;6.17;;
9288;SDS011;4683;50.864;12.086;2023-01-08T04:33:20;7.13;;;6.43;;
9288;SDS011;4683;50.864;12.086;2023-01-08T04:35:48;6.77;;;6.10;;
9288;SDS011;4683;50.864;12.086;2023-01-08T04:38:16;7.37;;;5.87;;
9288;SDS011;4683;50.864;12.086;2023-01-08T04:40:45;6.40;;;5.80;;
9288;SDS011;4683;50.864;12.086;2023-01-08T04:43:14;6.33;;;5.60;;
9288;SDS011;4683;50.864;12.086;2023-01-08T04:45:45;6.97;;;6.37;;
9288;SDS011;4683;50.864;12.086;2023-01-08T04:48:13;7.10;;;6.40;;
9288;SDS011;4683;50.864;12.086;2023-01-08T04:50:44;7.13;;;6.50;;
9288;SDS011;4683;50.864;12.086;2023-01-08T04:53:14;6.57;;;5.97;;
9288;SDS011;4683;50.864;12.086;2023-01-08T04:55:42;7.60;;;6.20;;
9288;SDS011;4683;50.864;12.086;2023-01-08T04:58:12;7.70;;;6.90;;
9288;SDS011;4683;50.864;12.086;2023-01-08T05:00:41;6.63;;;6.10;;
9288;SDS011;4683;50.864;12.086;2023-01-08T05:03:10;8.50;;;6.60;;
9288;SDS011;4683;50.864;12.086;2023-01-08T05:05:39;7.53;;;6.83;;
9288;SDS011;4683;50.864;12.086;2023-01-08T05:08:09;7.93;;;7.23;;
9288;SDS011;4683;50.864;12.086;2023-01-08T05:10:38;6.87;;;6.27;;
9288;SDS011;4683;50.864;12.086;2023-01-08T05:13:07;7.57;;;6.70;;
9288;SDS011;4683;50.864;12.086;2023-01-08T05:15:35;7.10;;;6.50;;
9288;SDS011;4683;50.864;12.086;2023-01-08T05:18:04;6.80;;;6.20;;
9288;SDS011;4683;50.864;12.086;2023-01-08T05:20:33;6.87;;;6.17;;
9288;SDS011;4683;50.864;12.086;2023-01-08T05:23:01;7.07;;;6.40;;
9288;SDS011;4683;50.864;12.086;2023-01-08T05:25:32;7.00;;;6.40;;
9288;SDS011;4683;50.864;12.086;2023-01-08T05:28:02;6.10;;;5.60;;
9288;SDS011;4683;50.864;12.086;2023-01-08T05:30:31;7.23;;;6.53;;
9288;SDS011;4683;50.864;12.086;2023-01-08T05:33:00;7.40;;;6.40;;
9288;SDS011;4683;50.864;12.086;2023-01-08T05:35:28;7.17;;;6.33;;
9288;SDS011;4683;50.864;12.086;2023-01-08T05:37:58;6.97;;;6.37;;
9288;SDS011;4683;50.864;12.086;2023-01-08T05:40:27;6.83;;;6.23;;
9288;SDS011;4683;50.864;12.086;2023-01-08T05:42:59;7.27;;;6.57;;
9288;SDS011;4683;50.864;12.086;2023-01-08T05:45:30;6.30;;;5.70;;
9288;SDS011;4683;50.864;12.086;2023-01-08T05:47:58;6.37;;;5.70;;
9288;SDS011;4683;50.864;12.086;2023-01-08T05:50:30;7.47;;;5.87;;
9288;SDS011;4683;50.864;12.086;2023-01-08T05:52:59;7.17;;;6.47;;
9288;SDS011;4683;50.864;12.086;2023-01-08T05:55:28;6.50;;;5.87;;
9288;SDS011;4683;50.864;12.086;2023-01-08T05:58:00;6.33;;;5.73;;
9288;SDS011;4683;50.864;12.086;2023-01-08T06:00:30;6.13;;;5.60;;
9288;SDS011;4683;50.864;12.086;2023-01-08T06:02:59;6.70;;;6.00;;
9288;SDS011;4683;50.864;12.086;2023-01-08T06:05:28;6.90;;;6.30;;
9288;SDS011;4683;50.864;12.086;2023-01-08T06:07:58;6.60;;;6.00;;
9288;SDS011;4683;50.864;12.086;2023-01-08T06:10:28;6.60;;;6.07;;
9288;SDS011;4683;50.864;12.086;2023-01-08T06:12:57;6.73;;;6.13;;
9288;SDS011;4683;50.864;12.086;2023-01-08T06:15:27;6.87;;;6.27;;
9288;SDS011;4683;50.864;12.086;2023-01-08T06:17:55;6.97;;;6.27;;
9288;SDS011;4683;50.864;12.086;2023-01-08T06:20:25;6.17;;;5.67;;
9288;SDS011;4683;50.864;12.086;2023-01-08T06:22:54;6.20;;;5.63;;
9288;SDS011;4683;50.864;12.086;2023-01-08T06:25:23;5.80;;;5.30;;
9288;SDS011;4683;50.864;12.086;2023-01-08T06:27:51;5.90;;;5.40;;
9288;SDS011;4683;50.864;12.086;2023-01-08T06:30:20;6.30;;;5.70;;
9288;SDS011;4683;50.864;12.086;2023-01-08T06:32:50;5.97;;;5.37;;
9288;SDS011;4683;50.864;12.086;2023-01-08T06:35:22;5.10;;;4.70;;
9288;SDS011;4683;50.864;12.086;2023-01-08T06:37:53;5.07;;;4.30;;
9288;SDS011;4683;50.864;12.086;2023-01-08T06:40:22;4.60;;;4.20;;
9288;SDS011;4683;50.864;12.086;2023-01-08T06:42:50;4.10;;;3.80;;
9288;SDS011;4683;50.864;12.086;2023-01-08T06:45:19;3.90;;;3.60;;
9288;SDS011;4683;50.864;12.086;2023-01-08T06:47:47;4.80;;;3.80;;
9288;SDS011;4683;50.864;12.086;2023-01-08T06:50:17;3.53;;;3.23;;
9288;SDS011;4683;50.864;12.086;2023-01-08T06:52:50;4.60;;;4.00;;
9288;SDS011;4683;50.864;12.086;2023-01-08T06:55:20;4.83;;;4.00;;
9288;SDS011;4683;50.864;12.086;2023-01-08T06:57:52;4.43;;;4.03;;
9288;SDS011;4683;50.864;12.086;2023-01-08T07:00:20;4.50;;;4.10;;
9288;SDS011;4683;50.864;12.086;2023-01-08T07:02:52;4.67;;;4.27;;
9288;SDS011;4683;50.864;12.086;2023-01-08T07:05:22;4.07;;;3.73;;
9288;SDS011;4683;50.864;12.086;2023-01-08T07:07:50;4.40;;;4.00;;
9288;SDS011;4683;50.864;12.086;2023-01-08T07:10:19;4.37;;;4.07;;
9288;SDS011;4683;50.864;12.086;2023-01-08T07:12:49;4.80;;;4.20;;
9288;SDS011;4683;50.864;12.086;2023-01-08T07:15:17;5.10;;;4.70;;
9288;SDS011;4683;50.864;12.086;2023-01-08T07:17:46;4.93;;;4.53;;
9288;SDS011;4683;50.864;12.086;2023-01-08T07:20:16;5.03;;;4.53;;
9288;SDS011;4683;50.864;12.086;2023-01-08T07:22:46;5.00;;;4.60;;
9288;SDS011;4683;50.864;12.086;2023-01-08T07:25:17;5.43;;;4.93;;
9288;SDS011;4683;50.864;12.086;2023-01-08T07:27:47;5.87;;;4.53;;
9288;SDS011;4683;50.864;12.086;2023-01-08T07:30:16;5.03;;;4.30;;
9288;SDS011;4683;50.864;12.086;2023-01-08T07:32:45;5.67;;;4.40;;
9288;SDS011;4683;50.864;12.086;2023-01-08T07:35:13;4.87;;;4.33;;
9288;SDS011;4683;50.864;12.086;2023-01-08T07:37:43;5.13;;;4.63;;
9288;SDS011;4683;50.864;12.086;2023-01-08T07:40:12;5.43;;;4.90;;
9288;SDS011;4683;50.864;12.086;2023-01-08T07:42:40;5.30;;;4.80;;
9288;SDS011;4683;50.864;12.086;2023-01-08T07:45:09;5.13;;;4.70;;
9288;SDS011;4683;50.864;12.086;2023-01-08T07:47:38;5.10;;;4.60;;
9288;SDS011;4683;50.864;12.086;2023-01-08T07:50:07;5.03;;;4.53;;
9288;SDS011;4683;50.864;12.086;2023-01-08T07:52:37;4.77;;;4.20;;
9288;SDS011;4683;50.864;12.086;2023-01-08T07:55:08;5.10;;;4.60;;
9288;SDS011;4683;50.864;12.086;2023-01-08T07:57:36;5.50;;;5.00;;
9288;SDS011;4683;50.864;12.086;2023-01-08T08:00:05;6.00;;;5.17;;
9288;SDS011;4683;50.864;12.086;2023-01-08T08:02:35;6.00;;;5.30;;
9288;SDS011;4683;50.864;12.086;2023-01-08T08:05:04;6.87;;;4.83;;
9288;SDS011;4683;50.864;12.086;2023-01-08T08:07:33;7.17;;;4.63;;
9288;SDS011;4683;50.864;12.086;2023-01-08T08:10:03;5.40;;;3.93;;
9288;SDS011;4683;50.864;12.086;2023-01-08T08:12:34;4.63;;;4.23;;
9288;SDS011;4683;50.864;12.086;2023-01-08T08:15:03;4.53;;;4.07;;
9288;SDS011;4683;50.864;12.086;2023-01-08T08:17:33;5.23;;;4.20;;
9288;SDS011;4683;50.864;12.086;2023-01-08T08:20:03;4.27;;;3.87;;
9288;SDS011;4683;50.864;12.086;2023-01-08T08:22:33;4.93;;;4.50;;
9288;SDS011;4683;50.864;12.086;2023-01-08T08:25:02;4.90;;;3.80;;
9288;SDS011;4683;50.864;12.086;2023-01-08T08:27:31;4.40;;;3.97;;
9288;SDS011;4683;50.864;12.086;2023-01-08T08:30:03;4.63;;;4.23;;
9288;SDS011;4683;50.864;12.086;2023-01-08T08:32:34;3.87;;;3.57;;
9288;SDS011;4683;50.864;12.086;2023-01-08T08:35:03;4.70;;;4.30;;
9288;SDS011;4683;50.864;12.086;2023-01-08T08:37:33;4.83;;;4.43;;
9288;SDS011;4683;50.864;12.086;2023-01-08T08:40:02;7.97;;;7.27;;
9288;SDS011;4683;50.864;12.086;2023-01-08T08:42:31;6.37;;;5.37;;
9288;SDS011;4683;50.864;12.086;2023-01-08T08:45:01;4.73;;;4.33;;
9288;SDS011;4683;50.864;12.086;2023-01-08T08:47:31;5.47;;;4.80;;
9288;SDS011;4683;50.864;12.086;2023-01-08T08:50:01;6.03;;;5.33;;
9288;SDS011;4683;50.864;12.086;2023-01-08T08:52:30;6.50;;;6.00;;
9288;SDS011;4683;50.864;12.086;2023-01-08T08:54:59;5.60;;;5.10;;
9288;SDS011;4683;50.864;12.086;2023-01-08T08:57:28;6.40;;;4.70;;
9288;SDS011;4683;50.864;12.086;2023-01-08T08:59:58;5.93;;;5.30;;
9288;SDS011;4683;50.864;12.086;2023-01-08T09:02:29;4.73;;;4.33;;
9288;SDS011;4683;50.864;12.086;2023-01-08T09:04:58;5.70;;;5.17;;
9288;SDS011;4683;50.864;12.086;2023-01-08T09:07:27;5.50;;;5.00;;
9288;SDS011;4683;50.864;12.086;2023-01-08T09:09:56;6.23;;;5.63;;
9288;SDS011;4683;50.864;12.086;2023-01-08T09:12:25;5.97;;;5.20;;
9288;SDS011;4683;50.864;12.086;2023-01-08T09:14:54;6.73;;;6.10;;
9288;SDS011;4683;50.864;12.086;2023-01-08T09:17:23;6.87;;;6.27;;
9288;SDS011;4683;50.864;12.086;2023-01-08T09:19:53;8.43;;;7.30;;
9288;SDS011;4683;50.864;12.086;2023-01-08T09:22:21;7.77;;;6.80;;
9288;SDS011;4683;50.864;12.086;2023-01-08T09:24:50;7.57;;;6.77;;
9288;SDS011;4683;50.864;12.086;2023-01-08T09:27:20;6.97;;;6.17;;
9288;SDS011;4683;50.864;12.086;2023-01-08T09:29:48;8.30;;;6.30;;
9288;SDS011;4683;50.864;12.086;2023-01-08T09:32:17;9.03;;;7.93;;
9288;SDS011;4683;50.864;12.086;2023-01-08T09:34:45;10.00;;;8.13;;
9288;SDS011;4683;50.864;12.086;2023-01-08T09:37:18;8.03;;;7.30;;
9288;SDS011;4683;50.864;12.086;2023-01-08T09:39:48;8.27;;;7.47;;
9288;SDS011;4683;50.864;12.086;2023-01-08T09:42:17;7.33;;;6.70;;
9288;SDS011;4683;50.864;12.086;2023-01-08T09:44:50;8.40;;;7.60;;
9288;SDS011;4683;50.864;12.086;2023-01-08T09:47:23;6.80;;;6.20;;
9288;SDS011;4683;50.864;12.086;2023-01-08T09:49:58;7.80;;;7.10;;
9288;SDS011;4683;50.864;12.086;2023-01-08T09:52:34;7.93;;;7.13;;
9288;SDS011;4683;50.864;12.086;2023-01-08T09:55:08;8.00;;;7.30;;
9288;SDS011;4683;50.864;12.086;2023-01-08T09:57:40;9.47;;;8.50;;
9288;SDS011;4683;50.864;12.086;2023-01-08T10:00:11;8.97;;;7.93;;
9288;SDS011;4683;50.864;12.086;2023-01-08T10:02:49;12.80;;;11.50;;
9288;SDS011;4683;50.864;12.086;2023-01-08T10:05:19;10.10;;;8.10;;
9288;SDS011;4683;50.864;12.086;2023-01-08T10:07:49;8.70;;;7.80;;
9288;SDS011;4683;50.864;12.086;2023-01-08T10:10:19;8.47;;;7.60;;
9288;SDS011;4683;50.864;12.086;2023-01-08T10:12:51;8.33;;;7.43;;
9288;SDS011;4683;50.864;12.086;2023-01-08T10:15:20;8.03;;;7.33;;
9288;SDS011;4683;50.864;12.086;2023-01-08T10:17:51;8.90;;;7.03;;
9288;SDS011;4683;50.864;12.086;2023-01-08T10:20:27;11.20;;;10.00;;
9288;SDS011;4683;50.864;12.086;2023-01-08T10:22:57;8.00;;;7.20;;
9288;SDS011;4683;50.864;12.086;2023-01-08T10:25:48;7.23;;;6.30;;
9288;SDS011;4683;50.864;12.086;2023-01-08T10:28:22;7.87;;;7.10;;
9288;SDS011;4683;50.864;12.086;2023-01-08T10:30:53;7.90;;;7.10;;
9288;SDS011;4683;50.864;12.086;2023-01-08T10:33:37;8.13;;;7.33;;
9288;SDS011;4683;50.864;12.086;2023-01-08T10:36:09;7.50;;;6.80;;
9288;SDS011;4683;50.864;12.086;2023-01-08T10:38:53;7.63;;;6.93;;
9288;SDS011;4683;50.864;12.086;2023-01-08T10:41:27;9.50;;;8.50;;
9288;SDS011;4683;50.864;12.086;2023-01-08T10:43:57;7.33;;;6.63;;
9288;SDS011;4683;50.864;12.086;2023-01-08T10:46:33;7.83;;;7.03;;
9288;SDS011;4683;50.864;12.086;2023-01-08T10:49:13;6.33;;;5.73;;
9288;SDS011;4683;50.864;12.086;2023-01-08T10:51:53;5.83;;;5.33;;
9288;SDS011;4683;50.864;12.086;2023-01-08T10:54:35;7.40;;;6.57;;
9288;SDS011;4683;50.864;12.086;2023-01-08T10:57:18;5.33;;;4.83;;
9288;SDS011;4683;50.864;12.086;2023-01-08T10:59:50;4.97;;;4.07;;
9288;SDS011;4683;50.864;12.086;2023-01-08T11:02:27;4.77;;;4.37;;
9288;SDS011;4683;50.864;12.086;2023-01-08T11:05:00;5.43;;;4.90;;
9288;SDS011;4683;50.864;12.086;2023-01-08T11:07:32;5.03;;;4.57;;
9288;SDS011;4683;50.864;12.086;2023-01-08T11:10:15;4.53;;;3.80;;
9288;SDS011;4683;50.864;12.086;2023-01-08T11:12:54;5.10;;;3.93;;
9288;SDS011;4683;50.864;12.086;2023-01-08T11:15:30;3.43;;;3.13;;
9288;SDS011;4683;50.864;12.086;2023-01-08T11:18:06;4.37;;;3.93;;
9288;SDS011;4683;50.864;12.086;2023-01-08T11:20:47;4.20;;;3.80;;
9288;SDS011;4683;50.864;12.086;2023-01-08T11:23:18;6.63;;;3.93;;
9288;SDS011;4683;50.864;12.086;2023-01-08T11:25:56;5.00;;;4.27;;
9288;SDS011;4683;50.864;12.086;2023-01-08T11:28:38;4.40;;;3.87;;
9288;SDS011;4683;50.864;12.086;2023-01-08T11:31:16;4.43;;;3.87;;
9288;SDS011;4683;50.864;12.086;2023-01-08T11:34:11;4.37;;;3.60;;
9288;SDS011;4683;50.864;12.086;2023-01-08T11:36:48;3.33;;;3.03;;
9288;SDS011;4683;50.864;12.086;2023-01-08T11:39:21;4.43;;;3.90;;
9288;SDS011;4683;50.864;12.086;2023-01-08T11:42:01;4.30;;;3.90;;
9288;SDS011;4683;50.864;12.086;2023-01-08T11:45:16;5.53;;;3.83;;
9288;SDS011;4683;50.864;12.086;2023-01-08T11:50:53;3.60;;;3.30;;
9288;SDS011;4683;50.864;12.086;2023-01-08T11:53:46;3.93;;;3.33;;
9288;SDS011;4683;50.864;12.086;2023-01-08T11:56:36;3.87;;;3.47;;
9288;SDS011;4683;50.864;12.086;2023-01-08T11:59:28;3.87;;;2.93;;
9288;SDS011;4683;50.864;12.086;2023-01-08T12:02:13;3.77;;;3.47;;
9288;SDS011;4683;50.864;12.086;2023-01-08T12:04:56;3.93;;;3.23;;
9288;SDS011;4683;50.864;12.086;2023-01-08T12:07:48;3.80;;;3.50;;
9288;SDS011;4683;50.864;12.086;2023-01-08T12:10:29;3.90;;;3.50;;
9288;SDS011;4683;50.864;12.086;2023-01-08T12:13:23;3.97;;;3.60;;
9288;SDS011;4683;50.864;12.086;2023-01-08T12:16:17;3.43;;;3.13;;
9288;SDS011;4683;50.864;12.086;2023-01-08T12:18:59;3.73;;;3.10;;
9288;SDS011;4683;50.864;12.086;2023-01-08T12:21:47;3.33;;;3.03;;
9288;SDS011;4683;50.864;12.086;2023-01-08T12:24:46;3.67;;;3.37;;
9288;SDS011;4683;50.864;12.086;2023-01-08T12:27:41;4.07;;;3.17;;
9288;SDS011;4683;50.864;12.086;2023-01-08T12:30:21;3.53;;;3.23;;
9288;SDS011;4683;50.864;12.086;2023-01-08T12:33:03;3.80;;;3.07;;
9288;SDS011;4683;50.864;12.086;2023-01-08T12:35:39;3.03;;;2.83;;
9288;SDS011;4683;50.864;12.086;2023-01-08T12:38:15;3.13;;;2.93;;
9288;SDS011;4683;50.864;12.086;2023-01-08T12:40:53;2.90;;;2.70;;
9288;SDS011;4683;50.864;12.086;2023-01-08T12:43:26;3.00;;;2.80;;
9288;SDS011;4683;50.864;12.086;2023-01-08T12:46:01;3.60;;;2.87;;
9288;SDS011;4683;50.864;12.086;2023-01-08T12:48:33;3.83;;;3.23;;
9288;SDS011;4683;50.864;12.086;2023-01-08T12:51:05;4.33;;;2.93;;
9288;SDS011;4683;50.864;12.086;2023-01-08T12:53:48;3.37;;;3.07;;
9288;SDS011;4683;50.864;12.086;2023-01-08T12:56:32;3.10;;;2.90;;
9288;SDS011;4683;50.864;12.086;2023-01-08T12:59:14;3.60;;;3.23;;
9288;SDS011;4683;50.864;12.086;2023-01-08T13:01:56;3.17;;;2.87;;
9288;SDS011;4683;50.864;12.086;2023-01-08T13:04:43;3.50;;;3.17;;
9288;SDS011;4683;50.864;12.086;2023-01-08T13:07:17;3.33;;;2.90;;
9288;SDS011;4683;50.864;12.086;2023-01-08T13:09:55;2.63;;;2.43;;
9288;SDS011;4683;50.864;12.086;2023-01-08T13:12:32;2.70;;;2.50;;
9288;SDS011;4683;50.864;12.086;2023-01-08T13:15:02;2.60;;;2.40;;
9288;SDS011;4683;50.864;12.086;2023-01-08T13:17:33;3.07;;;2.77;;
9288;SDS011;4683;50.864;12.086;2023-01-08T13:20:07;2.80;;;2.60;;
9288;SDS011;4683;50.864;12.086;2023-01-08T13:22:49;3.70;;;3.40;;
9288;SDS011;4683;50.864;12.086;2023-01-08T13:25:28;2.60;;;2.40;;
9288;SDS011;4683;50.864;12.086;2023-01-08T13:28:16;2.77;;;2.40;;
9288;SDS011;4683;50.864;12.086;2023-01-08T13:30:53;4.67;;;3.00;;
9288;SDS011;4683;50.864;12.086;2023-01-08T13:33:37;3.00;;;2.80;;
9288;SDS011;4683;50.864;12.086;2023-01-08T13:36:19;3.43;;;2.90;;
9288;SDS011;4683;50.864;12.086;2023-01-08T13:38:58;3.17;;;2.70;;
9288;SDS011;4683;50.864;12.086;2023-01-08T13:41:31;3.00;;;2.70;;
9288;SDS011;4683;50.864;12.086;2023-01-08T13:44:02;2.93;;;2.53;;
9288;SDS011;4683;50.864;12.086;2023-01-08T13:46:35;3.20;;;2.40;;
9288;SDS011;4683;50.864;12.086;2023-01-08T13:49:06;2.93;;;2.63;;
9288;SDS011;4683;50.864;12.086;2023-01-08T13:51:45;2.70;;;2.50;;
9288;SDS011;4683;50.864;12.086;2023-01-08T13:54:16;2.90;;;2.60;;
9288;SDS011;4683;50.864;12.086;2023-01-08T13:56:51;5.17;;;2.90;;
9288;SDS011;4683;50.864;12.086;2023-01-08T13:59:35;3.60;;;2.67;;
9288;SDS011;4683;50.864;12.086;2023-01-08T14:04:56;2.50;;;2.30;;
9288;SDS011;4683;50.864;12.086;2023-01-08T14:07:31;1.80;;;1.70;;
9288;SDS011;4683;50.864;12.086;2023-01-08T14:10:06;2.70;;;2.50;;
9288;SDS011;4683;50.864;12.086;2023-01-08T14:12:40;2.30;;;2.10;;
9288;SDS011;4683;50.864;12.086;2023-01-08T14:15:13;2.30;;;2.10;;
9288;SDS011;4683;50.864;12.086;2023-01-08T14:17:54;1.97;;;1.87;;
9288;SDS011;4683;50.864;12.086;2023-01-08T14:20:31;1.77;;;1.67;;
9288;SDS011;4683;50.864;12.086;2023-01-08T14:23:07;2.93;;;2.07;;
9288;SDS011;4683;50.864;12.086;2023-01-08T14:25:42;2.07;;;1.87;;
9288;SDS011;4683;50.864;12.086;2023-01-08T14:28:19;2.03;;;1.93;;
9288;SDS011;4683;50.864;12.086;2023-01-08T14:30:58;1.93;;;1.83;;
9288;SDS011;4683;50.864;12.086;2023-01-08T14:33:29;2.03;;;1.63;;
9288;SDS011;4683;50.864;12.086;2023-01-08T14:36:01;1.97;;;1.77;;
9288;SDS011;4683;50.864;12.086;2023-01-08T14:38:35;2.27;;;2.10;;
9288;SDS011;4683;50.864;12.086;2023-01-08T14:41:05;2.17;;;1.87;;
9288;SDS011;4683;50.864;12.086;2023-01-08T14:43:38;1.63;;;1.53;;
9288;SDS011;4683;50.864;12.086;2023-01-08T14:46:11;1.70;;;1.60;;
9288;SDS011;4683;50.864;12.086;2023-01-08T14:48:50;1.53;;;1.43;;
9288;SDS011;4683;50.864;12.086;2023-01-08T14:51:24;1.77;;;1.67;;
9288;SDS011;4683;50.864;12.086;2023-01-08T14:54:00;1.50;;;1.40;;
9288;SDS011;4683;50.864;12.086;2023-01-08T14:56:34;1.67;;;1.57;;
9288;SDS011;4683;50.864;12.086;2023-01-08T14:59:05;1.73;;;1.53;;
9288;SDS011;4683;50.864;12.086;2023-01-08T15:01:36;2.07;;;1.97;;
9288;SDS011;4683;50.864;12.086;2023-01-08T15:04:07;1.90;;;1.73;;
9288;SDS011;4683;50.864;12.086;2023-01-08T15:06:43;2.00;;;1.90;;
9288;SDS011;4683;50.864;12.086;2023-01-08T15:09:23;2.53;;;2.33;;
9288;SDS011;4683;50.864;12.086;2023-01-08T15:11:58;1.83;;;1.70;;
9288;SDS011;4683;50.864;12.086;2023-01-08T15:14:31;1.73;;;1.63;;
9288;SDS011;4683;50.864;12.086;2023-01-08T15:17:07;1.90;;;1.80;;
9288;SDS011;4683;50.864;12.086;2023-01-08T15:19:44;1.50;;;1.40;;
9288;SDS011;4683;50.864;12.086;2023-01-08T15:22:17;1.87;;;1.50;;
9288;SDS011;4683;50.864;12.086;2023-01-08T15:24:55;1.73;;;1.63;;
9288;SDS011;4683;50.864;12.086;2023-01-08T15:27:27;2.67;;;2.00;;
9288;SDS011;4683;50.864;12.086;2023-01-08T15:29:59;3.73;;;2.60;;
9288;SDS011;4683;50.864;12.086;2023-01-08T15:32:29;2.53;;;2.30;;
9288;SDS011;4683;50.864;12.086;2023-01-08T15:35:03;2.70;;;2.50;;
9288;SDS011;4683;50.864;12.086;2023-01-08T15:37:41;2.90;;;2.30;;
9288;SDS011;4683;50.864;12.086;2023-01-08T15:40:12;2.47;;;2.27;;
9288;SDS011;4683;50.864;12.086;2023-01-08T15:42:42;3.23;;;2.67;;
9288;SDS011;4683;50.864;12.086;2023-01-08T15:45:28;2.40;;;2.30;;